Time;durP1;ratioP1;P1;durP2;ratioP2;P2;SDS_P1;SDS_P2;PMS_P1;PMS_P2;Temp;Humidity;BMP_temperature;BMP_pressure;BME280_temperature;BME280_humidity;BME280_pressure;Samples;Min_cycle;Max_cycle;Signal;HPM_P1;HPM_P2
2023/12/17 00:01:07;;;;;;;;;;;8.10;84.70;;;;;;6276957;22;19915;-81
2023/12/17 00:03:33;;;;;;;;;;;8.10;84.50;;;;;;6277246;22;19985;-81
2023/12/17 00:05:59;;;;;;;;;;;8.00;84.30;;;;;;6277063;22;19899;-81
2023/12/17 00:08:24;;;;;;;;;;;8.00;84.40;;;;;;6276958;22;19906;-81
2023/12/17 00:10:50;;;;;;;;;;;7.90;84.50;;;;;;6277074;22;19899;-81
2023/12/17 00:13:17;;;;;;;;;;;7.90;84.70;;;;;;6277139;22;19899;-81
2023/12/17 00:15:42;;;;;;;;;;;7.90;84.70;;;;;;6277019;22;19945;-81
2023/12/17 00:18:09;;;;;;;;;;;7.80;85.20;;;;;;6249976;22;19915;-81
2023/12/17 00:20:34;;;;;;;;;;;7.80;84.80;;;;;;6276834;22;19946;-81
2023/12/17 00:23:00;;;;;;;;;;;7.80;84.80;;;;;;6276797;22;19903;-81
2023/12/17 00:25:25;;;;;;;;;;;7.70;85.00;;;;;;6276725;22;19899;-81
2023/12/17 00:27:51;;;;;;;;;;;7.60;85.40;;;;;;6276471;22;20328;-81
2023/12/17 00:30:16;;;;;;;;;;;7.50;85.60;;;;;;6276758;22;19899;-80
2023/12/17 00:32:42;;;;;;;;;;;7.50;85.80;;;;;;6277298;22;19899;-81
2023/12/17 00:35:07;;;;;;;;;;;7.40;86.20;;;;;;6277082;22;19925;-81
2023/12/17 00:37:33;;;;;;;;;;;7.40;86.40;;;;;;6276496;22;19907;-81
2023/12/17 00:39:59;;;;;;;;;;;7.40;86.90;;;;;;6276499;22;19910;-80
2023/12/17 00:42:24;;;;;;;;;;;7.30;86.90;;;;;;6277016;22;19899;-81
2023/12/17 00:44:50;;;;;;;;;;;7.30;86.90;;;;;;6276815;22;19899;-80
2023/12/17 00:47:15;;;;;;;;;;;7.30;87.00;;;;;;6276892;22;19938;-80
2023/12/17 00:49:41;;;;;;;;;;;7.20;87.30;;;;;;6276323;22;20274;-80
2023/12/17 00:52:06;;;;;;;;;;;7.20;87.50;;;;;;6276766;22;19899;-81
2023/12/17 00:54:32;;;;;;;;;;;7.20;87.60;;;;;;6274245;22;19985;-80
2023/12/17 00:56:58;;;;;;;;;;;7.20;87.60;;;;;;6276554;22;19990;-81
2023/12/17 00:59:23;;;;;;;;;;;7.10;87.70;;;;;;6249439;22;19945;-81
2023/12/17 01:01:50;;;;;;;;;;;7.00;87.80;;;;;;6276538;22;19978;-81
2023/12/17 01:04:15;;;;;;;;;;;7.00;88.10;;;;;;6276583;22;19899;-81
2023/12/17 01:06:41;;;;;;;;;;;7.00;88.30;;;;;;6276549;22;19906;-81
2023/12/17 01:09:07;;;;;;;;;;;7.00;88.60;;;;;;6275425;22;19899;-80
2023/12/17 01:11:32;;;;;;;;;;;6.90;88.70;;;;;;6276781;22;19899;-81
2023/12/17 01:13:58;;;;;;;;;;;7.00;89.10;;;;;;6277068;22;19903;-80
2023/12/17 01:16:23;;;;;;;;;;;7.00;89.10;;;;;;6276362;22;19911;-80
2023/12/17 01:18:49;;;;;;;;;;;7.10;89.20;;;;;;6277062;22;20313;-80
2023/12/17 01:21:14;;;;;;;;;;;7.10;89.00;;;;;;6276890;22;19942;-80
2023/12/17 01:23:40;;;;;;;;;;;7.20;89.10;;;;;;6276713;22;20371;-80
2023/12/17 01:26:06;;;;;;;;;;;7.20;88.90;;;;;;6276297;22;20237;-81
2023/12/17 01:28:31;;;;;;;;;;;7.20;88.80;;;;;;6276107;22;19903;-81
2023/12/17 01:30:57;;;;;;;;;;;7.20;88.50;;;;;;6276393;22;19941;-80
2023/12/17 01:33:22;;;;;;;;;;;7.20;88.60;;;;;;6276547;22;19953;-81
2023/12/17 01:35:48;;;;;;;;;;;7.20;88.90;;;;;;6249328;22;19907;-81
2023/12/17 01:38:13;;;;;;;;;;;7.10;88.70;;;;;;6276205;22;19910;-81
2023/12/17 01:40:39;;;;;;;;;;;7.10;88.80;;;;;;6276584;22;19939;-81
2023/12/17 01:43:08;;;;;;;;;;;7.10;88.90;;;;;;6277009;22;19899;-81
2023/12/17 01:45:34;;;;;;;;;;;7.10;89.10;;;;;;6250603;22;20323;-81
2023/12/17 01:47:59;;;;;;;;;;;7.10;89.50;;;;;;6278520;22;19899;-81
2023/12/17 01:50:26;;;;;;;;;;;7.10;89.60;;;;;;6278202;22;19934;-81
2023/12/17 01:52:51;;;;;;;;;;;7.20;89.50;;;;;;6251491;22;19927;-81
2023/12/17 01:55:17;;;;;;;;;;;7.30;89.20;;;;;;6278443;22;20340;-81
2023/12/17 01:57:43;;;;;;;;;;;7.30;88.80;;;;;;6278141;22;19986;-81
2023/12/17 02:00:08;;;;;;;;;;;7.30;88.20;;;;;;6278274;22;19997;-81
2023/12/17 02:02:34;;;;;;;;;;;7.30;87.90;;;;;;6278081;22;19899;-81
2023/12/17 02:05:02;;;;;;;;;;;7.40;88.00;;;;;;6278377;22;19899;-81
2023/12/17 02:07:28;;;;;;;;;;;7.50;87.80;;;;;;6277965;22;19906;-81
2023/12/17 02:09:53;;;;;;;;;;;7.50;87.70;;;;;;6278195;22;19899;-81
2023/12/17 02:12:29;;;;;;;;;;;7.50;87.60;;;;;;6278418;22;20198;-81
2023/12/17 02:14:55;;;;;;;;;;;7.60;87.20;;;;;;6278618;22;19899;-81
2023/12/17 02:17:25;;;;;;;;;;;7.60;86.90;;;;;;6278324;22;20214;-81
2023/12/17 02:19:51;;;;;;;;;;;7.60;86.60;;;;;;6277719;22;19915;-81
2023/12/17 02:22:16;;;;;;;;;;;7.60;85.70;;;;;;6277859;22;19903;-81
2023/12/17 02:24:42;;;;;;;;;;;7.60;85.70;;;;;;6277591;22;19899;-81
2023/12/17 02:27:07;;;;;;;;;;;7.60;86.20;;;;;;6278130;22;19899;-81
2023/12/17 02:29:33;;;;;;;;;;;7.60;86.50;;;;;;6278453;22;19899;-82
2023/12/17 02:31:59;;;;;;;;;;;7.50;86.70;;;;;;6277894;22;20309;-81
2023/12/17 02:34:24;;;;;;;;;;;7.50;86.50;;;;;;6250236;22;19969;-81
2023/12/17 02:36:50;;;;;;;;;;;7.60;86.60;;;;;;6250534;22;19903;-81
2023/12/17 02:39:15;;;;;;;;;;;7.60;86.50;;;;;;6277015;22;19931;-81
2023/12/17 02:41:41;;;;;;;;;;;7.60;86.30;;;;;;6277657;22;19899;-81
2023/12/17 02:44:06;;;;;;;;;;;7.60;86.00;;;;;;6277565;22;20294;-81
2023/12/17 02:46:32;;;;;;;;;;;7.70;86.10;;;;;;6277632;22;19899;-81
2023/12/17 02:48:57;;;;;;;;;;;7.60;86.00;;;;;;6278444;22;19957;-81
2023/12/17 02:51:23;;;;;;;;;;;7.70;86.00;;;;;;6277269;22;19938;-81
2023/12/17 02:53:48;;;;;;;;;;;7.70;86.00;;;;;;6250716;22;19949;-81
2023/12/17 02:56:14;;;;;;;;;;;7.70;85.80;;;;;;6250010;22;19906;-81
2023/12/17 02:58:40;;;;;;;;;;;7.70;85.70;;;;;;6250604;22;19914;-81
2023/12/17 03:01:05;;;;;;;;;;;7.70;85.10;;;;;;6277699;22;19953;-81
2023/12/17 03:03:31;;;;;;;;;;;7.60;85.00;;;;;;6277949;22;19900;-80
2023/12/17 03:05:56;;;;;;;;;;;7.60;84.90;;;;;;6278222;22;19899;-81
2023/12/17 03:08:22;;;;;;;;;;;7.50;85.30;;;;;;6277574;22;19903;-81
2023/12/17 03:10:47;;;;;;;;;;;7.40;85.50;;;;;;6277887;22;19900;-81
2023/12/17 03:13:13;;;;;;;;;;;7.30;85.20;;;;;;6277932;22;19969;-82
2023/12/17 03:15:38;;;;;;;;;;;7.20;85.40;;;;;;6277896;22;19903;-82
2023/12/17 03:18:04;;;;;;;;;;;7.20;85.90;;;;;;6277877;22;19961;-82
2023/12/17 03:20:30;;;;;;;;;;;7.20;86.30;;;;;;6277677;22;20286;-82
2023/12/17 03:22:56;;;;;;;;;;;7.10;86.70;;;;;;6277829;22;19906;-82
2023/12/17 03:25:21;;;;;;;;;;;7.20;86.70;;;;;;6277662;22;19899;-83
2023/12/17 03:27:47;;;;;;;;;;;7.20;86.90;;;;;;6250228;22;19950;-82
2023/12/17 03:30:12;;;;;;;;;;;7.20;86.70;;;;;;6277574;22;19910;-82
2023/12/17 03:32:38;;;;;;;;;;;7.20;86.70;;;;;;6277264;22;19906;-80
2023/12/17 03:35:04;;;;;;;;;;;7.30;87.00;;;;;;6277674;22;20195;-81
2023/12/17 03:37:29;;;;;;;;;;;7.30;86.80;;;;;;6277460;22;19918;-80
2023/12/17 03:39:55;;;;;;;;;;;7.30;86.30;;;;;;6277583;22;19906;-80
2023/12/17 03:42:20;;;;;;;;;;;7.30;86.20;;;;;;6276112;22;19934;-80
2023/12/17 03:44:46;;;;;;;;;;;7.20;86.40;;;;;;6277338;22;19905;-80
2023/12/17 03:47:12;;;;;;;;;;;7.10;86.40;;;;;;6277280;22;19900;-80
2023/12/17 03:49:37;;;;;;;;;;;7.10;86.90;;;;;;6277205;22;19899;-80
2023/12/17 03:52:04;;;;;;;;;;;7.00;87.10;;;;;;6276991;22;19899;-80
2023/12/17 03:54:29;;;;;;;;;;;6.90;87.30;;;;;;6277820;22;19949;-80
2023/12/17 03:56:55;;;;;;;;;;;6.90;87.30;;;;;;6277490;22;19907;-80
2023/12/17 03:59:20;;;;;;;;;;;6.90;87.60;;;;;;6250228;22;19899;-80
2023/12/17 04:01:46;;;;;;;;;;;6.90;87.80;;;;;;6277222;22;19914;-80
2023/12/17 04:04:13;;;;;;;;;;;6.90;87.90;;;;;;6277193;22;20013;-80
2023/12/17 04:06:42;;;;;;;;;;;6.90;87.80;;;;;;6277291;22;20175;-80
2023/12/17 04:09:08;;;;;;;;;;;6.90;87.50;;;;;;6276944;22;19981;-80
2023/12/17 04:11:33;;;;;;;;;;;6.80;87.40;;;;;;6277458;22;19899;-80
2023/12/17 04:13:59;;;;;;;;;;;6.80;87.70;;;;;;6277152;22;19982;-81
2023/12/17 04:16:24;;;;;;;;;;;6.70;88.10;;;;;;6277178;22;19931;-81
2023/12/17 04:18:50;;;;;;;;;;;6.60;88.10;;;;;;6276494;22;19903;-81
2023/12/17 04:21:15;;;;;;;;;;;6.60;88.30;;;;;;6276629;22;20262;-81
2023/12/17 04:23:41;;;;;;;;;;;6.60;88.50;;;;;;6276841;22;20301;-82
2023/12/17 04:26:06;;;;;;;;;;;6.50;88.60;;;;;;6276571;22;19922;-82
2023/12/17 04:28:32;;;;;;;;;;;6.50;88.60;;;;;;6276934;22;19907;-81
2023/12/17 04:30:57;;;;;;;;;;;6.50;88.60;;;;;;6277165;22;19910;-81
2023/12/17 04:33:23;;;;;;;;;;;6.50;88.80;;;;;;6276561;22;19899;-81
2023/12/17 04:35:48;;;;;;;;;;;6.50;88.80;;;;;;6249920;22;19934;-82
2023/12/17 04:38:16;;;;;;;;;;;6.50;88.70;;;;;;6249220;22;19941;-81
2023/12/17 04:40:45;;;;;;;;;;;6.50;88.70;;;;;;6276712;22;19899;-82
2023/12/17 04:43:11;;;;;;;;;;;6.40;88.90;;;;;;6277147;22;19899;-81
2023/12/17 04:45:36;;;;;;;;;;;6.30;88.90;;;;;;6277165;22;20049;-81
2023/12/17 04:48:02;;;;;;;;;;;6.40;89.20;;;;;;6277236;22;19958;-82
2023/12/17 04:50:27;;;;;;;;;;;6.30;89.30;;;;;;6276829;22;20179;-81
2023/12/17 04:52:53;;;;;;;;;;;6.30;89.50;;;;;;6276453;22;19900;-82
2023/12/17 04:55:19;;;;;;;;;;;6.30;89.60;;;;;;6277000;22;19900;-82
2023/12/17 04:57:44;;;;;;;;;;;6.30;89.60;;;;;;6276772;22;19989;-82
2023/12/17 05:00:10;;;;;;;;;;;6.30;89.50;;;;;;6276726;22;19910;-80
2023/12/17 05:02:36;;;;;;;;;;;6.30;89.50;;;;;;6276915;22;20186;-81
2023/12/17 05:05:01;;;;;;;;;;;6.30;89.70;;;;;;6276919;22;19899;-81
2023/12/17 05:07:27;;;;;;;;;;;6.30;89.70;;;;;;6276479;22;20314;-82
2023/12/17 05:09:52;;;;;;;;;;;6.20;89.60;;;;;;6276914;22;19906;-82
2023/12/17 05:12:18;;;;;;;;;;;6.20;89.90;;;;;;6277047;22;19969;-82
2023/12/17 05:14:44;;;;;;;;;;;6.30;89.80;;;;;;6276789;22;20412;-81
2023/12/17 05:17:09;;;;;;;;;;;6.30;89.80;;;;;;6276859;22;20364;-81
2023/12/17 05:19:35;;;;;;;;;;;6.30;89.80;;;;;;6276466;22;20309;-81
2023/12/17 05:22:00;;;;;;;;;;;6.30;89.70;;;;;;6277930;22;20308;-81
2023/12/17 05:24:26;;;;;;;;;;;6.30;89.50;;;;;;6278382;22;20262;-81
2023/12/17 05:26:51;;;;;;;;;;;6.30;89.50;;;;;;6278771;22;20205;-81
2023/12/17 05:29:17;;;;;;;;;;;6.20;89.40;;;;;;6278178;22;20222;-81
2023/12/17 05:31:42;;;;;;;;;;;6.20;89.50;;;;;;6278550;22;19906;-82
2023/12/17 05:34:08;;;;;;;;;;;6.30;89.70;;;;;;6278647;22;20316;-83
2023/12/17 05:36:34;;;;;;;;;;;6.30;89.40;;;;;;6278878;22;19910;-82
2023/12/17 05:39:00;;;;;;;;;;;6.30;89.40;;;;;;6278313;22;19899;-82
2023/12/17 05:41:26;;;;;;;;;;;6.30;89.50;;;;;;6278056;22;20297;-82
2023/12/17 05:43:51;;;;;;;;;;;6.20;89.50;;;;;;6278767;22;20305;-82
2023/12/17 05:46:17;;;;;;;;;;;6.20;89.60;;;;;;6278785;22;19900;-82
2023/12/17 05:48:42;;;;;;;;;;;6.20;89.90;;;;;;6278674;22;20360;-82
2023/12/17 05:51:08;;;;;;;;;;;6.20;90.00;;;;;;6251335;22;19900;-82
2023/12/17 05:53:34;;;;;;;;;;;6.20;89.80;;;;;;6277934;22;19899;-82
2023/12/17 05:56:00;;;;;;;;;;;6.20;89.90;;;;;;6278114;22;19934;-82
2023/12/17 05:58:25;;;;;;;;;;;6.30;89.80;;;;;;6278151;22;19903;-82
2023/12/17 06:00:51;;;;;;;;;;;6.30;89.60;;;;;;6250920;22;19907;-83
2023/12/17 06:03:16;;;;;;;;;;;6.30;89.60;;;;;;6278104;22;20310;-82
2023/12/17 06:05:42;;;;;;;;;;;6.30;89.00;;;;;;6278576;22;20297;-81
2023/12/17 06:08:07;;;;;;;;;;;6.30;89.20;;;;;;6278251;22;20324;-80
2023/12/17 06:10:33;;;;;;;;;;;6.20;89.30;;;;;;6278517;22;20013;-80
2023/12/17 06:12:59;;;;;;;;;;;6.20;89.50;;;;;;6277726;22;19903;-80
2023/12/17 06:15:24;;;;;;;;;;;6.30;89.40;;;;;;6277724;22;19899;-80
2023/12/17 06:17:50;;;;;;;;;;;6.20;89.20;;;;;;6278010;22;20029;-80
2023/12/17 06:20:16;;;;;;;;;;;6.20;89.30;;;;;;6278040;22;20337;-80
2023/12/17 06:22:41;;;;;;;;;;;6.20;89.60;;;;;;6278053;22;19899;-80
2023/12/17 06:25:07;;;;;;;;;;;6.20;89.60;;;;;;6277811;22;19899;-81
2023/12/17 06:27:34;;;;;;;;;;;6.10;89.70;;;;;;6277612;22;19899;-81
2023/12/17 06:30:00;;;;;;;;;;;6.20;89.70;;;;;;6277638;22;19946;-80
2023/12/17 06:32:25;;;;;;;;;;;6.20;89.90;;;;;;6278104;22;19907;-80
2023/12/17 06:34:51;;;;;;;;;;;6.20;89.80;;;;;;6277560;22;19903;-80
2023/12/17 06:37:16;;;;;;;;;;;6.20;89.60;;;;;;6277875;22;19910;-81
2023/12/17 06:39:42;;;;;;;;;;;6.20;89.50;;;;;;6278036;22;19906;-83
2023/12/17 06:42:11;;;;;;;;;;;6.20;90.00;;;;;;6277513;22;19906;-83
2023/12/17 06:44:36;;;;;;;;;;;6.20;90.10;;;;;;6277789;22;19911;-83
2023/12/17 06:47:02;;;;;;;;;;;6.20;90.20;;;;;;6277371;22;19903;-83
2023/12/17 06:49:27;;;;;;;;;;;6.20;90.10;;;;;;6250446;22;19906;-83
2023/12/17 06:51:53;;;;;;;;;;;6.20;90.00;;;;;;6250899;22;19910;-83
2023/12/17 06:54:19;;;;;;;;;;;6.20;89.80;;;;;;6277837;22;19903;-83
2023/12/17 06:56:44;;;;;;;;;;;6.20;89.90;;;;;;6276578;22;19974;-83
2023/12/17 06:59:10;;;;;;;;;;;6.20;90.00;;;;;;6248252;22;19900;-83
2023/12/17 07:01:36;;;;;;;;;;;6.20;90.10;;;;;;6276469;22;19914;-84
2023/12/17 07:04:01;;;;;;;;;;;6.20;90.10;;;;;;6250707;22;19918;-84
2023/12/17 07:06:27;;;;;;;;;;;6.20;90.00;;;;;;6276526;22;19969;-83
2023/12/17 07:08:53;;;;;;;;;;;6.20;90.00;;;;;;6275397;22;19899;-84
2023/12/17 07:11:19;;;;;;;;;;;6.10;89.90;;;;;;6248403;22;19910;-84
2023/12/17 07:13:44;;;;;;;;;;;6.10;90.00;;;;;;6276959;22;19931;-84
2023/12/17 07:16:23;;;;;;;;;;;6.10;90.10;;;;;;6275983;22;19926;-89
2023/12/17 07:18:48;;;;;;;;;;;6.10;90.10;;;;;;6249065;22;20421;-83
2023/12/17 07:21:15;;;;;;;;;;;6.10;90.00;;;;;;6246232;22;19899;-83
2023/12/17 07:23:40;;;;;;;;;;;6.10;89.90;;;;;;6277080;22;19923;-84
2023/12/17 07:26:06;;;;;;;;;;;6.00;90.00;;;;;;6248462;22;19914;-84
2023/12/17 07:28:31;;;;;;;;;;;6.10;90.30;;;;;;6275555;22;19904;-83
2023/12/17 07:30:57;;;;;;;;;;;6.10;90.90;;;;;;6276687;22;20187;-82
2023/12/17 07:33:22;;;;;;;;;;;6.20;90.50;;;;;;6277486;22;19910;-82
2023/12/17 07:35:48;;;;;;;;;;;6.30;90.30;;;;;;6277415;22;20081;-84
2023/12/17 07:38:13;;;;;;;;;;;6.30;90.20;;;;;;6276233;22;19903;-84
2023/12/17 07:40:39;;;;;;;;;;;6.30;90.10;;;;;;6248717;22;20202;-84
2023/12/17 07:43:05;;;;;;;;;;;6.30;90.00;;;;;;6277240;22;19899;-84
2023/12/17 07:45:31;;;;;;;;;;;6.40;90.10;;;;;;6276260;22;19903;-84
2023/12/17 07:47:56;;;;;;;;;;;6.40;90.00;;;;;;6250029;22;19899;-84
2023/12/17 07:50:22;;;;;;;;;;;6.30;89.70;;;;;;6277216;22;20245;-83
2023/12/17 07:52:47;;;;;;;;;;;6.30;89.80;;;;;;6277458;22;19899;-85
2023/12/17 07:55:13;;;;;;;;;;;6.40;90.00;;;;;;6277712;22;19902;-83
2023/12/17 07:57:39;;;;;;;;;;;6.40;92.10;;;;;;6276475;22;19960;-82
2023/12/17 08:00:05;;;;;;;;;;;6.50;90.60;;;;;;6275807;22;19941;-82
2023/12/17 08:02:30;;;;;;;;;;;6.60;90.40;;;;;;6275553;22;19907;-82
2023/12/17 08:04:56;;;;;;;;;;;6.60;90.20;;;;;;6276504;22;19899;-84
2023/12/17 08:07:34;;;;;;;;;;;6.60;90.20;;;;;;6275268;22;19899;-84
2023/12/17 08:10:00;;;;;;;;;;;6.60;90.00;;;;;;6249820;22;19899;-82
2023/12/17 08:12:26;;;;;;;;;;;6.60;90.00;;;;;;6276365;22;20376;-84
2023/12/17 08:14:51;;;;;;;;;;;6.70;90.10;;;;;;6277101;22;19899;-83
2023/12/17 08:17:17;;;;;;;;;;;6.80;90.10;;;;;;6277655;22;19967;-83
2023/12/17 08:19:42;;;;;;;;;;;6.80;90.00;;;;;;6277613;22;19899;-83
2023/12/17 08:22:09;;;;;;;;;;;6.80;89.90;;;;;;6277393;22;19910;-83
2023/12/17 08:24:34;;;;;;;;;;;6.90;89.90;;;;;;6277437;22;19953;-83
2023/12/17 08:27:02;;;;;;;;;;;6.90;90.10;;;;;;6277481;22;20318;-83
2023/12/17 08:29:28;;;;;;;;;;;7.00;90.10;;;;;;6277007;22;19907;-84
2023/12/17 08:31:55;;;;;;;;;;;7.00;90.00;;;;;;6277532;22;19898;-82
2023/12/17 08:34:22;;;;;;;;;;;7.10;89.70;;;;;;6277495;22;20221;-82
2023/12/17 08:36:48;;;;;;;;;;;7.20;89.50;;;;;;6250062;22;19967;-82
2023/12/17 08:39:13;;;;;;;;;;;7.20;89.40;;;;;;6277751;22;19903;-82
2023/12/17 08:41:39;;;;;;;;;;;7.30;89.30;;;;;;6277481;22;20280;-82
2023/12/17 08:44:05;;;;;;;;;;;7.40;88.40;;;;;;6277591;22;19899;-81
2023/12/17 08:46:31;;;;;;;;;;;7.50;88.50;;;;;;6250414;22;19899;-81
2023/12/17 08:48:56;;;;;;;;;;;7.60;88.80;;;;;;6277907;22;19906;-82
2023/12/17 08:51:22;;;;;;;;;;;7.60;88.10;;;;;;6277627;22;19906;-82
2023/12/17 08:53:48;;;;;;;;;;;7.70;88.10;;;;;;6277159;22;20207;-81
2023/12/17 08:56:13;;;;;;;;;;;7.80;87.70;;;;;;6276687;22;19986;-82
2023/12/17 08:58:39;;;;;;;;;;;7.80;87.20;;;;;;6276603;22;19914;-81
2023/12/17 09:01:04;;;;;;;;;;;7.90;86.70;;;;;;6276572;22;19930;-81
2023/12/17 09:03:30;;;;;;;;;;;7.90;86.50;;;;;;6276753;22;19997;-81
2023/12/17 09:05:55;;;;;;;;;;;7.90;86.80;;;;;;6277219;22;19926;-81
2023/12/17 09:08:21;;;;;;;;;;;8.00;87.30;;;;;;6276944;22;20265;-81
2023/12/17 09:10:47;;;;;;;;;;;8.10;87.30;;;;;;6276899;22;20268;-82
2023/12/17 09:13:13;;;;;;;;;;;8.20;86.80;;;;;;6276707;22;19904;-81
2023/12/17 09:15:39;;;;;;;;;;;8.20;86.50;;;;;;6276857;22;20314;-82
2023/12/17 09:18:05;;;;;;;;;;;8.30;86.80;;;;;;6277054;22;19907;-82
2023/12/17 09:20:31;;;;;;;;;;;8.40;86.80;;;;;;6249821;22;19899;-81
2023/12/17 09:22:57;;;;;;;;;;;8.40;86.90;;;;;;6275571;22;19910;-83
2023/12/17 09:25:23;;;;;;;;;;;8.50;86.60;;;;;;6276089;22;19899;-83
2023/12/17 09:27:51;;;;;;;;;;;8.50;86.40;;;;;;6275678;22;20266;-83
2023/12/17 09:30:20;;;;;;;;;;;8.60;86.40;;;;;;6277009;22;19933;-83
2023/12/17 09:32:46;;;;;;;;;;;8.70;85.70;;;;;;6276884;22;19979;-84
2023/12/17 09:35:11;;;;;;;;;;;8.80;86.00;;;;;;6277005;22;20276;-84
2023/12/17 09:37:37;;;;;;;;;;;8.80;85.10;;;;;;6249620;22;19903;-82
2023/12/17 09:40:03;;;;;;;;;;;8.90;84.00;;;;;;6276853;22;20217;-83
2023/12/17 09:42:29;;;;;;;;;;;8.80;83.80;;;;;;6249734;22;19910;-83
2023/12/17 09:47:32;;;;;;;;;;;9.00;84.80;;;;;;6270731;22;19934;-85
2023/12/17 09:49:58;;;;;;;;;;;9.10;84.90;;;;;;6305688;22;19926;-82
2023/12/17 09:52:26;;;;;;;;;;;9.20;85.10;;;;;;6279779;22;20308;-82
2023/12/17 09:54:52;;;;;;;;;;;9.40;85.20;;;;;;6306214;22;20308;-82
2023/12/17 09:57:17;;;;;;;;;;;9.50;85.10;;;;;;6306431;22;19903;-82
2023/12/17 09:59:44;;;;;;;;;;;9.60;84.40;;;;;;6307075;22;20356;-82
2023/12/17 10:02:15;;;;;;;;;;;9.70;84.20;;;;;;6306587;22;19898;-81
2023/12/17 10:04:41;;;;;;;;;;;9.80;84.30;;;;;;6279660;22;19903;-82
2023/12/17 10:07:07;;;;;;;;;;;9.90;82.80;;;;;;6306165;22;19899;-81
2023/12/17 10:09:35;;;;;;;;;;;9.90;82.20;;;;;;6308377;22;19910;-83
2023/12/17 10:12:01;;;;;;;;;;;10.00;82.90;;;;;;6308418;22;20336;-82
2023/12/17 10:14:30;;;;;;;;;;;10.10;82.40;;;;;;6308774;22;19899;-82
2023/12/17 10:16:56;;;;;;;;;;;10.10;82.00;;;;;;6308336;22;20362;-82
2023/12/17 10:19:21;;;;;;;;;;;10.20;82.40;;;;;;6308432;22;19930;-83
2023/12/17 10:21:47;;;;;;;;;;;10.40;82.60;;;;;;6308912;22;20358;-89
2023/12/17 10:24:13;;;;;;;;;;;10.50;82.10;;;;;;6308545;22;19957;-82
2023/12/17 10:26:49;;;;;;;;;;;10.70;82.10;;;;;;6308384;22;19899;-84
2023/12/17 10:29:16;;;;;;;;;;;11.00;80.50;;;;;;6308520;22;19899;-89
2023/12/17 10:31:42;;;;;;;;;;;11.10;78.40;;;;;;6309253;22;19922;-82
2023/12/17 10:34:22;;;;;;;;;;;11.20;80.50;;;;;;6309349;22;19899;-88
2023/12/17 10:36:49;;;;;;;;;;;11.50;80.40;;;;;;6308276;22;19902;-89
2023/12/17 10:39:15;;;;;;;;;;;11.70;83.90;;;;;;6309287;22;19942;-90
2023/12/17 10:41:41;;;;;;;;;;;12.00;83.80;;;;;;6307988;22;20012;-82
2023/12/17 10:44:10;;;;;;;;;;;12.20;79.60;;;;;;6280691;22;19898;-91
2023/12/17 10:46:36;;;;;;;;;;;12.30;79.90;;;;;;6307148;22;19921;-82
2023/12/17 10:49:02;;;;;;;;;;;12.60;79.60;;;;;;6278641;22;19899;-83
2023/12/17 10:51:29;;;;;;;;;;;12.70;78.00;;;;;;6278933;22;19902;-83
2023/12/17 10:53:54;;;;;;;;;;;12.80;77.90;;;;;;6280627;22;20330;-91
2023/12/17 10:56:20;;;;;;;;;;;12.90;77.60;;;;;;6307427;22;19922;-92
2023/12/17 10:58:47;;;;;;;;;;;13.00;74.10;;;;;;6307916;22;19903;-92
2023/12/17 11:01:13;;;;;;;;;;;13.00;72.90;;;;;;6307665;22;19903;-91
2023/12/17 11:03:39;;;;;;;;;;;13.10;74.80;;;;;;6307766;22;19906;-92
2023/12/17 11:06:04;;;;;;;;;;;13.20;71.00;;;;;;6307910;22;20236;-93
2023/12/17 11:08:30;;;;;;;;;;;13.30;73.30;;;;;;6280413;22;19899;-91
2023/12/17 11:10:57;;;;;;;;;;;13.40;71.00;;;;;;6307424;22;19906;-90
2023/12/17 11:13:23;;;;;;;;;;;13.50;71.40;;;;;;6306565;22;19902;-91
2023/12/17 11:15:49;;;;;;;;;;;13.50;68.50;;;;;;6307611;22;19899;-91
2023/12/17 11:18:15;;;;;;;;;;;13.60;71.30;;;;;;6306968;22;19903;-91
2023/12/17 11:20:41;;;;;;;;;;;13.70;71.80;;;;;;6280288;22;19899;-91
2023/12/17 11:23:06;;;;;;;;;;;13.90;71.70;;;;;;6307716;22;20317;-90
2023/12/17 11:25:34;;;;;;;;;;;14.10;70.30;;;;;;6280267;22;19903;-91
2023/12/17 11:28:00;;;;;;;;;;;14.20;66.70;;;;;;6307807;22;19898;-91
2023/12/17 11:30:29;;;;;;;;;;;14.20;67.20;;;;;;6307804;22;19899;-90
2023/12/17 11:32:58;;;;;;;;;;;14.20;69.60;;;;;;6307597;22;19920;-91
2023/12/17 11:35:24;;;;;;;;;;;14.40;69.70;;;;;;6307596;22;19899;-83
2023/12/17 11:37:50;;;;;;;;;;;14.70;70.60;;;;;;6306985;22;19956;-82
2023/12/17 11:40:16;;;;;;;;;;;15.30;79.80;;;;;;6279186;22;19903;-84
2023/12/17 11:42:53;;;;;;;;;;;16.30;67.90;;;;;;6302937;22;20260;-84
2023/12/17 11:45:29;;;;;;;;;;;17.40;66.40;;;;;;6304934;22;20304;-83
2023/12/17 11:47:55;;;;;;;;;;;18.70;63.70;;;;;;6229070;22;1161591;-83
2023/12/17 11:50:20;;;;;;;;;;;19.80;56.50;;;;;;6255015;22;19919;-82
2023/12/17 11:53:00;;;;;;;;;;;20.60;55.50;;;;;;6273423;22;19911;-83
2023/12/17 11:55:25;;;;;;;;;;;21.20;54.60;;;;;;6269459;22;19907;-82
2023/12/17 11:57:59;;;;;;;;;;;21.80;53.80;;;;;;6246425;22;19907;-83
2023/12/17 12:00:24;;;;;;;;;;;22.40;52.30;;;;;;6272046;22;19907;-83
2023/12/17 12:02:57;;;;;;;;;;;22.90;49.50;;;;;;6273554;22;19900;-83
2023/12/17 12:05:22;;;;;;;;;;;23.10;49.70;;;;;;6275102;22;19922;-84
2023/12/17 12:07:52;;;;;;;;;;;23.30;47.60;;;;;;6275999;22;19974;-83
2023/12/17 12:10:18;;;;;;;;;;;23.40;48.20;;;;;;6274888;22;19903;-80
2023/12/17 12:12:43;;;;;;;;;;;23.40;47.30;;;;;;6249122;22;19945;-82
2023/12/17 12:15:09;;;;;;;;;;;23.50;47.20;;;;;;6273345;22;19899;-83
2023/12/17 12:17:38;;;;;;;;;;;23.70;46.70;;;;;;6274677;22;20210;-82
2023/12/17 12:20:07;;;;;;;;;;;23.70;46.60;;;;;;6275653;22;19978;-82
2023/12/17 12:22:33;;;;;;;;;;;23.80;46.70;;;;;;6275370;22;19914;-83
2023/12/17 12:24:59;;;;;;;;;;;23.90;46.60;;;;;;6275426;22;19899;-82
2023/12/17 12:27:25;;;;;;;;;;;23.80;46.40;;;;;;6275441;22;19899;-82
2023/12/17 12:29:55;;;;;;;;;;;23.80;46.50;;;;;;6274984;22;19903;-82
2023/12/17 12:32:30;;;;;;;;;;;23.30;43.50;;;;;;6275989;22;19903;-82
2023/12/17 12:34:56;;;;;;;;;;;22.90;46.30;;;;;;6276060;22;19910;-82
2023/12/17 12:37:35;;;;;;;;;;;22.70;46.70;;;;;;6274097;22;19956;-82
2023/12/17 12:40:00;;;;;;;;;;;22.50;47.00;;;;;;6275816;22;19903;-82
2023/12/17 12:42:26;;;;;;;;;;;22.20;48.00;;;;;;6247699;22;19980;-82
2023/12/17 12:44:52;;;;;;;;;;;21.80;47.00;;;;;;6273579;22;19915;-82
2023/12/17 12:47:18;;;;;;;;;;;21.30;48.60;;;;;;6273447;22;19903;-82
2023/12/17 12:49:43;;;;;;;;;;;21.10;49.50;;;;;;6272769;22;19927;-82
2023/12/17 12:52:09;;;;;;;;;;;20.90;48.60;;;;;;6273762;22;20285;-82
2023/12/17 12:54:34;;;;;;;;;;;20.70;49.70;;;;;;6274675;22;20317;-82
2023/12/17 12:57:00;;;;;;;;;;;20.60;50.50;;;;;;6273778;22;19922;-82
2023/12/17 12:59:26;;;;;;;;;;;20.60;50.80;;;;;;6273559;22;20201;-82
2023/12/17 13:01:55;;;;;;;;;;;20.60;51.10;;;;;;6272144;22;20240;-82
2023/12/17 13:04:21;;;;;;;;;;;20.70;51.00;;;;;;6274629;22;19914;-82
2023/12/17 13:06:47;;;;;;;;;;;20.70;51.20;;;;;;6272021;22;19926;-83
2023/12/17 13:09:13;;;;;;;;;;;20.70;50.70;;;;;;6273383;22;19914;-83
2023/12/17 13:11:39;;;;;;;;;;;20.70;49.60;;;;;;6274614;22;19972;-82
2023/12/17 13:14:05;;;;;;;;;;;20.50;50.50;;;;;;6274646;22;20495;-82
2023/12/17 13:16:30;;;;;;;;;;;20.30;51.20;;;;;;6275398;22;19899;-82
2023/12/17 13:18:56;;;;;;;;;;;20.00;51.00;;;;;;6275136;22;19903;-82
2023/12/17 13:21:21;;;;;;;;;;;19.70;51.50;;;;;;6270836;22;19903;-84
2023/12/17 13:23:49;;;;;;;;;;;19.30;51.90;;;;;;6274628;22;20226;-84
2023/12/17 13:26:17;;;;;;;;;;;18.90;52.60;;;;;;6274832;22;19899;-84
2023/12/17 13:28:43;;;;;;;;;;;18.40;52.90;;;;;;6275211;22;19899;-83
2023/12/17 13:31:09;;;;;;;;;;;17.90;53.20;;;;;;6274245;22;19906;-83
2023/12/17 13:33:34;;;;;;;;;;;17.40;54.00;;;;;;6246385;22;19930;-82
2023/12/17 13:36:00;;;;;;;;;;;16.90;54.80;;;;;;6272630;22;19899;-82
2023/12/17 13:38:26;;;;;;;;;;;16.60;56.00;;;;;;6275291;22;19910;-82
2023/12/17 13:40:52;;;;;;;;;;;16.20;56.90;;;;;;6275436;22;19953;-82
2023/12/17 13:43:17;;;;;;;;;;;16.00;57.10;;;;;;6275962;22;19903;-83
2023/12/17 13:45:43;;;;;;;;;;;15.80;57.80;;;;;;6275573;22;19949;-83
2023/12/17 13:48:12;;;;;;;;;;;15.60;58.40;;;;;;6274775;22;19913;-82
2023/12/17 13:50:39;;;;;;;;;;;15.40;59.20;;;;;;6275670;22;19907;-82
2023/12/17 13:53:05;;;;;;;;;;;15.20;59.60;;;;;;6274812;22;20362;-83
2023/12/17 13:55:31;;;;;;;;;;;15.00;60.00;;;;;;6275288;22;19927;-82
2023/12/17 13:57:57;;;;;;;;;;;14.90;61.40;;;;;;6275308;22;19906;-82
2023/12/17 14:00:22;;;;;;;;;;;14.80;61.50;;;;;;6275025;22;20331;-82
2023/12/17 14:02:48;;;;;;;;;;;14.70;61.60;;;;;;6276529;22;19910;-82
2023/12/17 14:05:13;;;;;;;;;;;14.60;62.20;;;;;;6276020;22;19949;-82
2023/12/17 14:07:39;;;;;;;;;;;14.50;62.50;;;;;;6276817;22;19982;-82
2023/12/17 14:10:05;;;;;;;;;;;14.30;63.00;;;;;;6250482;22;19899;-82
2023/12/17 14:12:33;;;;;;;;;;;14.20;63.10;;;;;;6278258;22;19910;-82
2023/12/17 14:14:59;;;;;;;;;;;14.20;63.90;;;;;;6278263;22;19900;-82
2023/12/17 14:17:25;;;;;;;;;;;14.10;63.90;;;;;;6276977;22;19953;-82
2023/12/17 14:19:50;;;;;;;;;;;14.00;64.40;;;;;;6277217;22;19960;-82
2023/12/17 14:22:18;;;;;;;;;;;13.90;64.40;;;;;;6277545;22;19907;-82